DEBOI EDDF-EGLL
Flight info
| Callsign | DEBOI |
|---|---|
| Flight time | N/A |
| Altitude | 10000 |
| Route | SOBRA1F SOBRA DCT MAVEP DCT LEDMU DCT ULTAV DCT ZAGRE DCT EGZOV DCT HELEN DCT KEGIT DCT SUMUM DCT LOGAN |
| Aircraft | C172/L-SFG/C |
Departure
| Time | 2026-05-05 12:50 |
|---|---|
| Airport | Frankfurt Main Airport (EDDF) |
Arrival
| Time | N/A |
|---|---|
| Airport | London Heathrow Airport (EGLL) |
| Time | Latitude | Longitude | Altitude | Speed | Heading |
|---|---|---|---|---|---|
| 2026-05-05 12:06 | 50.03185 | 8.58119 | 340 ft | 0 kts | 249° |
| 2026-05-05 12:43 | 50.03183 | 8.58119 | 340 ft | 0 kts | 165° |
| 2026-05-05 12:44 | 50.03182 | 8.58123 | 340 ft | 3 kts | 118° |
| 2026-05-05 12:44 | 50.03227 | 8.58193 | 339 ft | 18 kts | 28° |
| 2026-05-05 12:44 | 50.03388 | 8.58314 | 340 ft | 31 kts | 24° |
| 2026-05-05 12:44 | 50.03605 | 8.58473 | 336 ft | 33 kts | 25° |
| 2026-05-05 12:45 | 50.03790 | 8.58549 | 340 ft | 25 kts | 67° |
| 2026-05-05 12:45 | 50.03839 | 8.58790 | 338 ft | 22 kts | 71° |
| 2026-05-05 12:45 | 50.03899 | 8.59013 | 339 ft | 25 kts | 69° |
| 2026-05-05 12:45 | 50.03985 | 8.59296 | 340 ft | 34 kts | 56° |
| 2026-05-05 12:46 | 50.04218 | 8.59477 | 338 ft | 35 kts | 7° |
| 2026-05-05 12:46 | 50.04423 | 8.59440 | 340 ft | 28 kts | 301° |
| 2026-05-05 12:46 | 50.04377 | 8.59163 | 340 ft | 37 kts | 249° |
| 2026-05-05 12:46 | 50.04292 | 8.58813 | 338 ft | 32 kts | 249° |
| 2026-05-05 12:47 | 50.04311 | 8.58621 | 340 ft | 16 kts | 7° |
| 2026-05-05 12:47 | 50.04345 | 8.58626 | 340 ft | 0 kts | 6° |
| 2026-05-05 12:48 | 50.04391 | 8.58632 | 340 ft | 16 kts | 5° |
| 2026-05-05 12:49 | 50.04475 | 8.58544 | 340 ft | 17 kts | 256° |
| 2026-05-05 12:49 | 50.04468 | 8.58508 | 338 ft | 0 kts | 252° |
| 2026-05-05 12:49 | 50.04438 | 8.58380 | 339 ft | 36 kts | 250° |
| 2026-05-05 12:49 | 50.04297 | 8.57786 | 347 ft | 77 kts | 249° |
| 2026-05-05 12:50 | 50.04098 | 8.56958 | 499 ft | 82 kts | 249° |
| 2026-05-05 12:50 | 50.03915 | 8.56190 | 787 ft | 73 kts | 248° |
| 2026-05-05 12:50 | 50.03715 | 8.55394 | 967 ft | 79 kts | 248° |
| 2026-05-05 12:50 | 50.03524 | 8.54548 | 1094 ft | 95 kts | 249° |
| 2026-05-05 12:51 | 50.03263 | 8.53494 | 1188 ft | 106 kts | 250° |
| 2026-05-05 12:51 | 50.03005 | 8.52423 | 1381 ft | 106 kts | 250° |
| 2026-05-05 12:51 | 50.02755 | 8.51389 | 1660 ft | 97 kts | 249° |
| 2026-05-05 12:51 | 50.02481 | 8.50501 | 1960 ft | 85 kts | 237° |
| 2026-05-05 12:52 | 50.02147 | 8.49794 | 2249 ft | 76 kts | 229° |
| 2026-05-05 12:52 | 50.01797 | 8.49262 | 2512 ft | 65 kts | 220° |
| 2026-05-05 12:52 | 50.01444 | 8.48851 | 2667 ft | 67 kts | 214° |
| 2026-05-05 12:52 | 50.00976 | 8.48439 | 2732 ft | 85 kts | 205° |
| 2026-05-05 12:53 | 50.00377 | 8.48118 | 2831 ft | 97 kts | 194° |
| 2026-05-05 12:53 | 49.99681 | 8.47943 | 2922 ft | 105 kts | 189° |
| 2026-05-05 12:53 | 49.98938 | 8.47769 | 3007 ft | 111 kts | 189° |
| 2026-05-05 12:53 | 49.98168 | 8.47591 | 3112 ft | 111 kts | 189° |
| 2026-05-05 12:54 | 49.96668 | 8.47253 | 3422 ft | 107 kts | 189° |
| 2026-05-05 12:54 | 49.95954 | 8.47046 | 3621 ft | 102 kts | 198° |
| 2026-05-05 12:54 | 49.95289 | 8.46730 | 3823 ft | 100 kts | 197° |
| 2026-05-05 12:55 | 49.94636 | 8.46433 | 4048 ft | 96 kts | 197° |
| 2026-05-05 12:55 | 49.94007 | 8.46144 | 4266 ft | 93 kts | 197° |
| 2026-05-05 12:55 | 49.93391 | 8.45860 | 4487 ft | 91 kts | 197° |
| 2026-05-05 12:55 | 49.92798 | 8.45568 | 4708 ft | 88 kts | 202° |
| 2026-05-05 12:56 | 49.92260 | 8.45136 | 4922 ft | 86 kts | 211° |
| 2026-05-05 12:56 | 49.91794 | 8.44593 | 5135 ft | 82 kts | 220° |
| 2026-05-05 12:56 | 49.91401 | 8.43958 | 5355 ft | 82 kts | 230° |
| 2026-05-05 12:56 | 49.91081 | 8.43234 | 5571 ft | 81 kts | 237° |
| 2026-05-05 12:57 | 49.90841 | 8.42446 | 5778 ft | 81 kts | 246° |
| 2026-05-05 12:57 | 49.90682 | 8.41579 | 5960 ft | 85 kts | 256° |
| 2026-05-05 12:57 | 49.90617 | 8.40642 | 6148 ft | 89 kts | 265° |
| 2026-05-05 12:57 | 49.90660 | 8.39687 | 6332 ft | 89 kts | 274° |
| 2026-05-05 12:58 | 49.90814 | 8.38721 | 6506 ft | 94 kts | 287° |
| 2026-05-05 12:58 | 49.91098 | 8.37773 | 6688 ft | 99 kts | 298° |
| 2026-05-05 12:58 | 49.91505 | 8.36906 | 6871 ft | 100 kts | 309° |
| 2026-05-05 12:58 | 49.92008 | 8.36189 | 7039 ft | 96 kts | 320° |
| 2026-05-05 12:59 | 49.92568 | 8.35647 | 7200 ft | 94 kts | 332° |
| 2026-05-05 12:59 | 49.93170 | 8.35248 | 7346 ft | 94 kts | 335° |
| 2026-05-05 12:59 | 49.93772 | 8.34857 | 7493 ft | 94 kts | 336° |
| 2026-05-05 13:00 | 49.94994 | 8.34063 | 7794 ft | 95 kts | 335° |
| 2026-05-05 13:00 | 49.95607 | 8.33664 | 7954 ft | 96 kts | 336° |
| 2026-05-05 13:01 | 49.97495 | 8.32437 | 8351 ft | 100 kts | 336° |
| 2026-05-05 13:01 | 49.98130 | 8.32023 | 8482 ft | 95 kts | 336° |
| 2026-05-05 13:01 | 49.98728 | 8.31631 | 8591 ft | 93 kts | 336° |
| 2026-05-05 13:01 | 49.99334 | 8.31236 | 8677 ft | 96 kts | 336° |
| 2026-05-05 13:02 | 49.99955 | 8.30835 | 8760 ft | 100 kts | 336° |
| 2026-05-05 13:02 | 50.00600 | 8.30415 | 8845 ft | 101 kts | 336° |
| 2026-05-05 13:02 | 50.01257 | 8.29987 | 8936 ft | 103 kts | 336° |
| 2026-05-05 13:02 | 50.01936 | 8.29545 | 9030 ft | 107 kts | 336° |
| 2026-05-05 13:03 | 50.02652 | 8.29079 | 9137 ft | 116 kts | 336° |
| 2026-05-05 13:03 | 50.03405 | 8.28591 | 9324 ft | 115 kts | 336° |
| 2026-05-05 13:03 | 50.04126 | 8.28119 | 9532 ft | 109 kts | 336° |
| 2026-05-05 13:03 | 50.04818 | 8.27821 | 9710 ft | 99 kts | 5° |
| 2026-05-05 13:04 | 50.05453 | 8.28097 | 9843 ft | 95 kts | 20° |
| 2026-05-05 13:04 | 50.06118 | 8.28437 | 9856 ft | 106 kts | 21° |
| 2026-05-05 13:04 | 50.06838 | 8.28815 | 9860 ft | 115 kts | 21° |
| 2026-05-05 13:04 | 50.07627 | 8.29229 | 9860 ft | 121 kts | 20° |
| 2026-05-05 13:05 | 50.08432 | 8.29651 | 9864 ft | 126 kts | 21° |
| 2026-05-05 13:05 | 50.09274 | 8.30094 | 9860 ft | 129 kts | 20° |
| 2026-05-05 13:05 | 50.10129 | 8.30541 | 9861 ft | 130 kts | 20° |
| 2026-05-05 13:05 | 50.10992 | 8.30994 | 9859 ft | 131 kts | 20° |
| 2026-05-05 13:06 | 50.11856 | 8.31445 | 9861 ft | 131 kts | 20° |
| 2026-05-05 13:06 | 50.12719 | 8.31897 | 9862 ft | 131 kts | 20° |
| 2026-05-05 13:06 | 50.13584 | 8.32350 | 9858 ft | 131 kts | 20° |
| 2026-05-05 13:06 | 50.14448 | 8.32803 | 9855 ft | 131 kts | 20° |
| 2026-05-05 13:07 | 50.15309 | 8.33254 | 9859 ft | 130 kts | 20° |
| 2026-05-05 13:07 | 50.16170 | 8.33705 | 9856 ft | 130 kts | 20° |
| 2026-05-05 13:07 | 50.17021 | 8.34152 | 9856 ft | 131 kts | 20° |
| 2026-05-05 13:07 | 50.17889 | 8.34608 | 9855 ft | 132 kts | 20° |
| 2026-05-05 13:08 | 50.18753 | 8.35062 | 9855 ft | 131 kts | 20° |
| 2026-05-05 13:08 | 50.19620 | 8.35517 | 9851 ft | 131 kts | 20° |
| 2026-05-05 13:08 | 50.20480 | 8.35968 | 9849 ft | 130 kts | 20° |
| 2026-05-05 13:08 | 50.21338 | 8.36419 | 9852 ft | 130 kts | 20° |
| 2026-05-05 13:09 | 50.22199 | 8.36872 | 9849 ft | 130 kts | 20° |
| 2026-05-05 13:09 | 50.23065 | 8.37328 | 9850 ft | 131 kts | 20° |
| 2026-05-05 13:09 | 50.23909 | 8.37776 | 9845 ft | 126 kts | 20° |
| 2026-05-05 13:09 | 50.24712 | 8.38202 | 9829 ft | 118 kts | 20° |
| 2026-05-05 13:10 | 50.25465 | 8.38595 | 9834 ft | 113 kts | 20° |
| 2026-05-05 13:10 | 50.26238 | 8.38995 | 9831 ft | 118 kts | 20° |
| 2026-05-05 13:10 | 50.27022 | 8.39409 | 9831 ft | 119 kts | 20° |
| 2026-05-05 13:10 | 50.27817 | 8.39828 | 9838 ft | 122 kts | 20° |
| 2026-05-05 13:11 | 50.28628 | 8.40255 | 9839 ft | 123 kts | 20° |
| 2026-05-05 13:11 | 50.29442 | 8.40686 | 9843 ft | 124 kts | 20° |
| 2026-05-05 13:11 | 50.30259 | 8.41134 | 9840 ft | 125 kts | 21° |
| 2026-05-05 13:11 | 50.31092 | 8.41587 | 9835 ft | 128 kts | 20° |
| 2026-05-05 13:12 | 50.31925 | 8.42041 | 9838 ft | 129 kts | 21° |
| 2026-05-05 13:12 | 50.32771 | 8.42504 | 9840 ft | 129 kts | 21° |
| 2026-05-05 13:12 | 50.33618 | 8.42966 | 9834 ft | 129 kts | 21° |
| 2026-05-05 13:12 | 50.34464 | 8.43426 | 9832 ft | 129 kts | 21° |
| 2026-05-05 13:13 | 50.35309 | 8.43887 | 9832 ft | 129 kts | 21° |
| 2026-05-05 13:13 | 50.36165 | 8.44354 | 9833 ft | 129 kts | 20° |
| 2026-05-05 13:13 | 50.37003 | 8.44811 | 9832 ft | 129 kts | 21° |
| 2026-05-05 13:13 | 50.37862 | 8.45279 | 9830 ft | 129 kts | 20° |
| 2026-05-05 13:14 | 50.38696 | 8.45735 | 9829 ft | 129 kts | 21° |
| 2026-05-05 13:14 | 50.39545 | 8.46199 | 9827 ft | 129 kts | 20° |
| 2026-05-05 13:14 | 50.40394 | 8.46662 | 9827 ft | 129 kts | 20° |
| 2026-05-05 13:14 | 50.40970 | 8.46978 | 9827 ft | 129 kts | 20° |
| 2026-05-05 13:15 | 50.41816 | 8.47440 | 9827 ft | 129 kts | 20° |
| 2026-05-05 13:15 | 50.42661 | 8.47902 | 9826 ft | 129 kts | 20° |
| 2026-05-05 13:15 | 50.43499 | 8.48360 | 9827 ft | 129 kts | 20° |
| 2026-05-05 13:15 | 50.44344 | 8.48823 | 9827 ft | 129 kts | 20° |
| 2026-05-05 13:16 | 50.45200 | 8.49292 | 9830 ft | 129 kts | 20° |
| 2026-05-05 13:16 | 50.46050 | 8.49758 | 9823 ft | 130 kts | 20° |
| 2026-05-05 13:16 | 50.46898 | 8.50223 | 9824 ft | 129 kts | 20° |
| 2026-05-05 13:16 | 50.47759 | 8.50642 | 9820 ft | 129 kts | 16° |
| 2026-05-05 13:17 | 50.48609 | 8.51053 | 9824 ft | 129 kts | 19° |
| 2026-05-05 13:17 | 50.49469 | 8.51476 | 9829 ft | 129 kts | 18° |
| 2026-05-05 13:17 | 50.50331 | 8.51890 | 9830 ft | 129 kts | 18° |
| 2026-05-05 13:17 | 50.51196 | 8.52304 | 9829 ft | 129 kts | 18° |
| 2026-05-05 13:18 | 50.52050 | 8.52713 | 9827 ft | 130 kts | 18° |
| 2026-05-05 13:18 | 50.52920 | 8.53130 | 9828 ft | 130 kts | 18° |
| 2026-05-05 13:18 | 50.53771 | 8.53537 | 9829 ft | 129 kts | 18° |
| 2026-05-05 13:18 | 50.54636 | 8.53952 | 9831 ft | 130 kts | 18° |
| 2026-05-05 13:19 | 50.55498 | 8.54365 | 9831 ft | 131 kts | 18° |
| 2026-05-05 13:19 | 50.56373 | 8.54784 | 9830 ft | 131 kts | 18° |
| 2026-05-05 13:19 | 50.57234 | 8.55197 | 9827 ft | 130 kts | 18° |
| 2026-05-05 13:19 | 50.58105 | 8.55614 | 9830 ft | 130 kts | 18° |
| 2026-05-05 13:20 | 50.58974 | 8.56031 | 9829 ft | 131 kts | 18° |
| 2026-05-05 13:20 | 50.59846 | 8.56449 | 9832 ft | 130 kts | 18° |
| 2026-05-05 13:20 | 50.60711 | 8.56864 | 9831 ft | 130 kts | 18° |
| 2026-05-05 13:20 | 50.61575 | 8.57280 | 9831 ft | 130 kts | 18° |
| 2026-05-05 13:21 | 50.62446 | 8.57697 | 9833 ft | 130 kts | 18° |
| 2026-05-05 13:21 | 50.63313 | 8.58114 | 9830 ft | 130 kts | 18° |
| 2026-05-05 13:21 | 50.64182 | 8.58532 | 9832 ft | 131 kts | 18° |
| 2026-05-05 13:21 | 50.65052 | 8.58951 | 9833 ft | 131 kts | 18° |
| 2026-05-05 13:22 | 50.65920 | 8.59368 | 9832 ft | 130 kts | 18° |
| 2026-05-05 13:22 | 50.66787 | 8.59785 | 9828 ft | 130 kts | 18° |
| 2026-05-05 13:22 | 50.67643 | 8.60198 | 9831 ft | 130 kts | 18° |
| 2026-05-05 13:22 | 50.68509 | 8.60615 | 9827 ft | 130 kts | 18° |
| 2026-05-05 13:23 | 50.69381 | 8.61035 | 9826 ft | 132 kts | 18° |
| 2026-05-05 13:23 | 50.70258 | 8.61458 | 9827 ft | 131 kts | 18° |
| 2026-05-05 13:23 | 50.71133 | 8.61879 | 9830 ft | 131 kts | 18° |
| 2026-05-05 13:23 | 50.72012 | 8.62305 | 9825 ft | 132 kts | 18° |
| 2026-05-05 13:24 | 50.72887 | 8.62726 | 9825 ft | 131 kts | 18° |
| 2026-05-05 13:24 | 50.73756 | 8.63145 | 9822 ft | 131 kts | 18° |
| 2026-05-05 13:24 | 50.74631 | 8.63568 | 9824 ft | 132 kts | 18° |
| 2026-05-05 13:24 | 50.75505 | 8.63991 | 9821 ft | 131 kts | 18° |
| 2026-05-05 13:25 | 50.76380 | 8.64414 | 9820 ft | 131 kts | 18° |
| 2026-05-05 13:25 | 50.77254 | 8.64836 | 9825 ft | 131 kts | 18° |
| 2026-05-05 13:25 | 50.78127 | 8.65258 | 9825 ft | 131 kts | 18° |
| 2026-05-05 13:25 | 50.78999 | 8.65680 | 9823 ft | 131 kts | 18° |
| 2026-05-05 13:26 | 50.79866 | 8.66100 | 9820 ft | 130 kts | 18° |
| 2026-05-05 13:26 | 50.80727 | 8.66517 | 9822 ft | 130 kts | 18° |
| 2026-05-05 13:26 | 50.81591 | 8.66846 | 9813 ft | 129 kts | 0° |
| 2026-05-05 13:26 | 50.82436 | 8.66452 | 9809 ft | 127 kts | 324° |
| 2026-05-05 13:27 | 50.83040 | 8.65474 | 9814 ft | 124 kts | 306° |
| 2026-05-05 13:27 | 50.83599 | 8.64436 | 9809 ft | 123 kts | 307° |
| 2026-05-05 13:27 | 50.84148 | 8.63416 | 9810 ft | 122 kts | 307° |
| 2026-05-05 13:27 | 50.84693 | 8.62403 | 9811 ft | 120 kts | 307° |
| 2026-05-05 13:28 | 50.85239 | 8.61383 | 9815 ft | 122 kts | 307° |
| 2026-05-05 13:28 | 50.85791 | 8.60356 | 9815 ft | 123 kts | 307° |
| 2026-05-05 13:28 | 50.86346 | 8.59323 | 9816 ft | 123 kts | 307° |
| 2026-05-05 13:28 | 50.86900 | 8.58290 | 9821 ft | 124 kts | 307° |
| 2026-05-05 13:29 | 50.87459 | 8.57250 | 9822 ft | 123 kts | 307° |
| 2026-05-05 13:29 | 50.88007 | 8.56227 | 9827 ft | 123 kts | 307° |
| 2026-05-05 13:29 | 50.88565 | 8.55187 | 9829 ft | 124 kts | 307° |
| 2026-05-05 13:29 | 50.89123 | 8.54143 | 9826 ft | 124 kts | 307° |
| 2026-05-05 13:30 | 50.89682 | 8.53102 | 9826 ft | 123 kts | 307° |
| 2026-05-05 13:30 | 50.90238 | 8.52062 | 9829 ft | 124 kts | 307° |
| 2026-05-05 13:30 | 50.90797 | 8.51016 | 9829 ft | 124 kts | 307° |
| 2026-05-05 13:30 | 50.91356 | 8.49970 | 9826 ft | 124 kts | 307° |
| 2026-05-05 13:31 | 50.91914 | 8.48928 | 9828 ft | 124 kts | 307° |
| 2026-05-05 13:31 | 50.92469 | 8.47890 | 9829 ft | 123 kts | 306° |
| 2026-05-05 13:31 | 50.93023 | 8.46852 | 9830 ft | 124 kts | 306° |
| 2026-05-05 13:31 | 50.93583 | 8.45804 | 9834 ft | 125 kts | 307° |
| 2026-05-05 13:32 | 50.94145 | 8.44751 | 9831 ft | 125 kts | 307° |
| 2026-05-05 13:32 | 50.94706 | 8.43701 | 9831 ft | 124 kts | 306° |
| 2026-05-05 13:32 | 50.95267 | 8.42647 | 9839 ft | 125 kts | 307° |
| 2026-05-05 13:32 | 50.95833 | 8.41588 | 9832 ft | 125 kts | 306° |
| 2026-05-05 13:33 | 50.96388 | 8.40545 | 9838 ft | 126 kts | 306° |
| 2026-05-05 13:33 | 50.96953 | 8.39486 | 9835 ft | 126 kts | 306° |
| 2026-05-05 13:33 | 50.97515 | 8.38428 | 9836 ft | 125 kts | 306° |
| 2026-05-05 13:33 | 50.98078 | 8.37372 | 9831 ft | 126 kts | 306° |
| 2026-05-05 13:34 | 50.98642 | 8.36312 | 9834 ft | 126 kts | 306° |
| 2026-05-05 13:34 | 50.99204 | 8.35254 | 9832 ft | 125 kts | 306° |
| 2026-05-05 13:34 | 50.99766 | 8.34198 | 9834 ft | 125 kts | 306° |
| 2026-05-05 13:34 | 51.00328 | 8.33139 | 9840 ft | 126 kts | 306° |
| 2026-05-05 13:35 | 51.00900 | 8.32062 | 9832 ft | 129 kts | 307° |
| 2026-05-05 13:35 | 51.01486 | 8.30963 | 9836 ft | 131 kts | 308° |
| 2026-05-05 13:35 | 51.02229 | 8.30115 | 9834 ft | 133 kts | 330° |
| 2026-05-05 13:35 | 51.03041 | 8.29408 | 9838 ft | 132 kts | 328° |
| 2026-05-05 13:36 | 51.03840 | 8.28697 | 9829 ft | 131 kts | 328° |
| 2026-05-05 13:36 | 51.04628 | 8.27994 | 9828 ft | 129 kts | 328° |
| 2026-05-05 13:36 | 51.05410 | 8.27299 | 9828 ft | 129 kts | 328° |
| 2026-05-05 13:36 | 51.06190 | 8.26604 | 9827 ft | 128 kts | 328° |
| 2026-05-05 13:37 | 51.06958 | 8.25920 | 9822 ft | 127 kts | 328° |
| 2026-05-05 13:37 | 51.07725 | 8.25236 | 9818 ft | 126 kts | 328° |
| 2026-05-05 13:37 | 51.08485 | 8.24558 | 9820 ft | 126 kts | 328° |
| 2026-05-05 13:37 | 51.09251 | 8.23874 | 9826 ft | 127 kts | 328° |
| 2026-05-05 13:38 | 51.10022 | 8.23187 | 9824 ft | 127 kts | 328° |
| 2026-05-05 13:38 | 51.10792 | 8.22502 | 9824 ft | 126 kts | 328° |
| 2026-05-05 13:38 | 51.11561 | 8.21819 | 9827 ft | 127 kts | 328° |
| 2026-05-05 13:38 | 51.12336 | 8.21128 | 9827 ft | 128 kts | 328° |
| 2026-05-05 13:39 | 51.13103 | 8.20446 | 9823 ft | 124 kts | 328° |
| 2026-05-05 13:39 | 51.13860 | 8.19768 | 9827 ft | 124 kts | 328° |
| 2026-05-05 13:39 | 51.14609 | 8.19101 | 9824 ft | 126 kts | 328° |
| 2026-05-05 13:39 | 51.15374 | 8.18420 | 9826 ft | 126 kts | 328° |
| 2026-05-05 13:40 | 51.16143 | 8.17732 | 9826 ft | 127 kts | 328° |
| 2026-05-05 13:40 | 51.16909 | 8.17039 | 9831 ft | 126 kts | 328° |
| 2026-05-05 13:40 | 51.17671 | 8.16341 | 9832 ft | 126 kts | 326° |
| 2026-05-05 13:40 | 51.18117 | 8.15264 | 9822 ft | 116 kts | 265° |
| 2026-05-05 13:41 | 51.17942 | 8.14061 | 9838 ft | 113 kts | 261° |
| 2026-05-05 13:41 | 51.17923 | 8.12790 | 9845 ft | 115 kts | 265° |
| 2026-05-05 13:41 | 51.17920 | 8.11504 | 9845 ft | 116 kts | 266° |
| 2026-05-05 13:41 | 51.17930 | 8.10223 | 9844 ft | 116 kts | 266° |
| 2026-05-05 13:42 | 51.17944 | 8.08933 | 9844 ft | 117 kts | 266° |
| 2026-05-05 13:42 | 51.17960 | 8.07639 | 9841 ft | 117 kts | 266° |
| 2026-05-05 13:42 | 51.17978 | 8.06333 | 9847 ft | 118 kts | 267° |
| 2026-05-05 13:42 | 51.17997 | 8.05019 | 9844 ft | 119 kts | 266° |
| 2026-05-05 13:43 | 51.18015 | 8.03723 | 9847 ft | 118 kts | 267° |
| 2026-05-05 13:43 | 51.18034 | 8.02419 | 9837 ft | 117 kts | 266° |
| 2026-05-05 13:43 | 51.18051 | 8.01115 | 9840 ft | 118 kts | 267° |
| 2026-05-05 13:43 | 51.18070 | 7.99801 | 9842 ft | 118 kts | 267° |
| 2026-05-05 13:44 | 51.18087 | 7.98494 | 9841 ft | 117 kts | 267° |
| 2026-05-05 13:44 | 51.18105 | 7.97197 | 9842 ft | 118 kts | 267° |
| 2026-05-05 13:44 | 51.18122 | 7.95884 | 9847 ft | 118 kts | 266° |
| 2026-05-05 13:44 | 51.18140 | 7.94571 | 9847 ft | 118 kts | 266° |
| 2026-05-05 13:45 | 51.18157 | 7.93272 | 9846 ft | 117 kts | 267° |
| 2026-05-05 13:45 | 51.18174 | 7.91972 | 9843 ft | 117 kts | 266° |
| 2026-05-05 13:45 | 51.18190 | 7.90670 | 9842 ft | 118 kts | 267° |
| 2026-05-05 13:45 | 51.18207 | 7.89360 | 9847 ft | 118 kts | 267° |
| 2026-05-05 13:46 | 51.18224 | 7.88053 | 9847 ft | 117 kts | 266° |
| 2026-05-05 13:46 | 51.18240 | 7.86747 | 9843 ft | 118 kts | 266° |
| 2026-05-05 13:46 | 51.18257 | 7.85430 | 9845 ft | 119 kts | 266° |
| 2026-05-05 13:46 | 51.18273 | 7.84128 | 9846 ft | 119 kts | 266° |
| 2026-05-05 13:47 | 51.18289 | 7.82811 | 9844 ft | 119 kts | 267° |
| 2026-05-05 13:47 | 51.18306 | 7.81493 | 9841 ft | 119 kts | 267° |
| 2026-05-05 13:47 | 51.18321 | 7.80181 | 9844 ft | 118 kts | 267° |
| 2026-05-05 13:47 | 51.18336 | 7.78871 | 9845 ft | 118 kts | 266° |
| 2026-05-05 13:48 | 51.18352 | 7.77566 | 9839 ft | 117 kts | 267° |
| 2026-05-05 13:48 | 51.18367 | 7.76280 | 9836 ft | 116 kts | 266° |
| 2026-05-05 13:48 | 51.18381 | 7.74990 | 9841 ft | 117 kts | 266° |
| 2026-05-05 13:48 | 51.18396 | 7.73692 | 9841 ft | 117 kts | 266° |
| 2026-05-05 13:49 | 51.18411 | 7.72388 | 9844 ft | 118 kts | 266° |
| 2026-05-05 13:49 | 51.18426 | 7.71077 | 9842 ft | 118 kts | 266° |
| 2026-05-05 13:49 | 51.18440 | 7.69784 | 9842 ft | 118 kts | 266° |
| 2026-05-05 13:49 | 51.18455 | 7.68476 | 9847 ft | 118 kts | 266° |
| 2026-05-05 13:50 | 51.18469 | 7.67158 | 9846 ft | 119 kts | 266° |
| 2026-05-05 13:50 | 51.18484 | 7.65835 | 9849 ft | 119 kts | 266° |
| 2026-05-05 13:50 | 51.18498 | 7.64518 | 9850 ft | 119 kts | 266° |
| 2026-05-05 13:50 | 51.18512 | 7.63195 | 9850 ft | 119 kts | 266° |
| 2026-05-05 13:51 | 51.18526 | 7.61871 | 9849 ft | 120 kts | 267° |
| 2026-05-05 13:51 | 51.18540 | 7.60552 | 9848 ft | 119 kts | 266° |
| 2026-05-05 13:51 | 51.18553 | 7.59234 | 9847 ft | 119 kts | 266° |
| 2026-05-05 13:51 | 51.18566 | 7.57906 | 9851 ft | 120 kts | 266° |
| 2026-05-05 13:52 | 51.18580 | 7.56571 | 9851 ft | 120 kts | 266° |
| 2026-05-05 13:52 | 51.18594 | 7.55245 | 9850 ft | 119 kts | 266° |
| 2026-05-05 13:52 | 51.18607 | 7.53919 | 9851 ft | 120 kts | 266° |
| 2026-05-05 13:52 | 51.18619 | 7.52593 | 9853 ft | 120 kts | 266° |
| 2026-05-05 13:53 | 51.18631 | 7.51272 | 9852 ft | 119 kts | 266° |
| 2026-05-05 13:53 | 51.18643 | 7.49954 | 9851 ft | 119 kts | 266° |
| 2026-05-05 13:53 | 51.18652 | 7.49080 | 9853 ft | 120 kts | 266° |
| 2026-05-05 13:53 | 51.18662 | 7.48017 | 9851 ft | 120 kts | 266° |
| 2026-05-05 13:54 | 51.18674 | 7.46683 | 9853 ft | 121 kts | 266° |
| 2026-05-05 13:54 | 51.18687 | 7.45349 | 9853 ft | 120 kts | 266° |
| 2026-05-05 13:54 | 51.18699 | 7.44025 | 9852 ft | 119 kts | 266° |
| 2026-05-05 13:54 | 51.18711 | 7.42699 | 9849 ft | 120 kts | 265° |
| 2026-05-05 13:55 | 51.18722 | 7.41371 | 9852 ft | 120 kts | 266° |
| 2026-05-05 13:55 | 51.18734 | 7.40039 | 9852 ft | 119 kts | 266° |
| 2026-05-05 13:55 | 51.18744 | 7.38720 | 9849 ft | 119 kts | 266° |
| 2026-05-05 13:55 | 51.18755 | 7.37359 | 9742 ft | 127 kts | 266° |
| 2026-05-05 13:56 | 51.18768 | 7.35926 | 9627 ft | 131 kts | 266° |
| 2026-05-05 13:56 | 51.18782 | 7.34458 | 9502 ft | 133 kts | 267° |
| 2026-05-05 13:56 | 51.18795 | 7.33000 | 9381 ft | 134 kts | 267° |
| 2026-05-05 13:56 | 51.18808 | 7.31511 | 9251 ft | 135 kts | 266° |
| 2026-05-05 13:57 | 51.18820 | 7.30016 | 9123 ft | 135 kts | 266° |
| 2026-05-05 13:57 | 51.18832 | 7.28523 | 8992 ft | 134 kts | 267° |
| 2026-05-05 13:57 | 51.18843 | 7.27035 | 8867 ft | 135 kts | 268° |
| 2026-05-05 13:57 | 51.18854 | 7.25539 | 8742 ft | 135 kts | 267° |
| 2026-05-05 13:58 | 51.18865 | 7.24044 | 8615 ft | 135 kts | 266° |
| 2026-05-05 13:58 | 51.18876 | 7.22550 | 8488 ft | 134 kts | 267° |
| 2026-05-05 13:58 | 51.18887 | 7.21062 | 8363 ft | 134 kts | 266° |
| 2026-05-05 13:58 | 51.18893 | 7.20076 | 8281 ft | 134 kts | 267° |
| 2026-05-05 13:59 | 51.18912 | 7.17109 | 8020 ft | 133 kts | 267° |
| 2026-05-05 13:59 | 51.18925 | 7.15146 | 7856 ft | 134 kts | 266° |
| 2026-05-05 14:00 | 51.18942 | 7.12664 | 7644 ft | 134 kts | 266° |
| 2026-05-05 14:00 | 51.18950 | 7.11178 | 7519 ft | 134 kts | 266° |
| 2026-05-05 14:00 | 51.18959 | 7.09699 | 7394 ft | 133 kts | 266° |
| 2026-05-05 14:00 | 51.18967 | 7.08249 | 7276 ft | 132 kts | 268° |
| 2026-05-05 14:01 | 51.18976 | 7.06780 | 7154 ft | 132 kts | 266° |
| 2026-05-05 14:01 | 51.18984 | 7.05306 | 7035 ft | 133 kts | 267° |
| 2026-05-05 14:01 | 51.18993 | 7.03833 | 6909 ft | 132 kts | 266° |
| 2026-05-05 14:01 | 51.19001 | 7.02363 | 6790 ft | 133 kts | 267° |
| 2026-05-05 14:02 | 51.19008 | 7.00886 | 6666 ft | 132 kts | 266° |
| 2026-05-05 14:02 | 51.19016 | 6.99422 | 6546 ft | 132 kts | 265° |
| 2026-05-05 14:02 | 51.19023 | 6.97937 | 6427 ft | 132 kts | 268° |
| 2026-05-05 14:02 | 51.19030 | 6.96471 | 6303 ft | 132 kts | 266° |
| 2026-05-05 14:03 | 51.19037 | 6.95007 | 6183 ft | 132 kts | 268° |
| 2026-05-05 14:03 | 51.19034 | 6.93549 | 6045 ft | 132 kts | 267° |